createdAt,value
2022-10-23T00:04:47.595Z,6.18
2022-10-23T00:09:50.991Z,6.20
2022-10-23T00:14:55.809Z,7.75
2022-10-23T00:19:59.177Z,8.63
2022-10-23T00:25:02.687Z,8.23
2022-10-23T00:30:09.194Z,9.00
2022-10-23T00:35:12.742Z,8.80
2022-10-23T00:40:16.259Z,7.93
2022-10-23T00:45:25.720Z,7.30
2022-10-23T00:50:31.312Z,7.72
2022-10-23T00:55:38.401Z,8.30
2022-10-23T01:00:49.647Z,8.02
2022-10-23T01:05:58.360Z,8.65
2022-10-23T01:11:11.848Z,8.48
2022-10-23T01:16:22.324Z,8.20
2022-10-23T01:21:34.106Z,7.70
2022-10-23T01:26:49.046Z,7.90
2022-10-23T01:31:59.669Z,8.10
2022-10-23T01:37:05.369Z,8.07
2022-10-23T01:42:12.856Z,8.75
2022-10-23T01:52:25.308Z,9.43
2022-10-23T01:57:32.434Z,8.98
2022-10-23T02:02:39.081Z,10.75
2022-10-23T02:07:42.794Z,10.30
2022-10-23T02:12:56.139Z,10.27
2022-10-23T02:18:36.130Z,9.65
2022-10-23T02:23:45.728Z,10.60
2022-10-23T02:28:53.275Z,11.90
2022-10-23T02:33:58.422Z,15.30
2022-10-23T02:39:01.788Z,14.88
2022-10-23T02:44:20.140Z,13.35
2022-10-23T02:49:33.161Z,13.13
2022-10-23T02:54:52.294Z,10.07
2022-10-23T03:00:03.572Z,10.88
2022-10-23T03:05:13.730Z,21.30
2022-10-23T03:10:17.506Z,17.70
2022-10-23T03:15:20.844Z,11.57
2022-10-23T03:20:25.825Z,11.73
2022-10-23T03:25:29.907Z,13.85
2022-10-23T03:30:33.265Z,12.27
2022-10-23T03:35:38.077Z,12.32
2022-10-23T03:45:44.680Z,10.90
2022-10-23T03:50:49.420Z,10.98
2022-10-23T03:55:52.732Z,10.07
2022-10-23T04:00:56.368Z,10.95
2022-10-23T04:06:01.865Z,11.38
2022-10-23T04:11:05.367Z,12.00
2022-10-23T04:16:09.010Z,11.50
2022-10-23T04:21:13.794Z,11.82
2022-10-23T04:26:17.330Z,12.38
2022-10-23T04:31:20.806Z,12.93
2022-10-23T04:36:26.108Z,12.45
2022-10-23T04:41:29.580Z,13.30
2022-10-23T04:46:32.971Z,13.90
2022-10-23T04:51:38.650Z,13.18
2022-10-23T04:56:42.016Z,13.25
2022-10-23T05:01:45.839Z,15.55
2022-10-23T05:06:50.695Z,16.95
2022-10-23T05:17:04.109Z,14.18
2022-10-23T05:22:10.042Z,13.88
2022-10-23T05:27:13.595Z,14.07
2022-10-23T05:32:18.063Z,14.73
2022-10-23T05:37:23.344Z,14.07
2022-10-23T05:42:26.814Z,13.73
2022-10-23T05:47:31.640Z,14.45
2022-10-23T05:57:39.691Z,14.67
2022-10-23T06:02:43.271Z,14.85
2022-10-23T06:07:48.153Z,15.05
2022-10-23T06:17:55.726Z,13.52
2022-10-23T06:23:00.599Z,13.35
2022-10-23T06:33:06.971Z,13.38
2022-10-23T06:38:11.810Z,13.27
2022-10-23T06:48:18.350Z,13.05
2022-10-23T06:53:24.911Z,12.38
2022-10-23T06:58:28.693Z,12.00
2022-10-23T07:03:32.064Z,12.82
2022-10-23T07:08:37.880Z,12.63
2022-10-23T07:13:42.729Z,11.68
2022-10-23T07:23:51.095Z,10.93
2022-10-23T07:28:55.693Z,12.38
2022-10-23T07:33:59.201Z,12.50
2022-10-23T07:39:05.322Z,12.63
2022-10-23T07:44:08.872Z,12.10
2022-10-23T07:49:13.138Z,11.82
2022-10-23T07:54:17.871Z,12.32
2022-10-23T07:59:21.293Z,12.20
2022-10-23T08:04:25.037Z,12.80
2022-10-23T08:09:29.846Z,12.40
2022-10-23T08:19:37.088Z,12.73
2022-10-23T08:24:41.861Z,12.03
2022-10-23T08:34:48.648Z,12.68
2022-10-23T08:39:54.960Z,12.95
2022-10-23T08:45:06.897Z,13.50
2022-10-23T08:50:21.117Z,12.93
2022-10-23T08:55:31.422Z,13.27
2022-10-23T09:00:35.842Z,13.80
2022-10-23T09:05:54.425Z,14.18
2022-10-23T09:11:04.798Z,14.35
2022-10-23T09:16:16.132Z,14.82
2022-10-23T09:21:21.020Z,14.68
2022-10-23T09:31:29.049Z,14.33
2022-10-23T09:36:34.525Z,15.85
2022-10-23T09:41:41.643Z,16.38
2022-10-23T09:46:47.551Z,15.57
2022-10-23T09:52:06.567Z,15.57
2022-10-23T09:57:24.123Z,16.38
2022-10-23T10:02:29.787Z,16.40
2022-10-23T10:07:35.959Z,16.65
2022-10-23T10:12:51.041Z,16.23
2022-10-23T10:18:04.870Z,17.07
2022-10-23T10:23:18.508Z,18.17
2022-10-23T10:28:39.897Z,16.65
2022-10-23T10:33:54.682Z,17.27
2022-10-23T10:39:01.827Z,18.33
2022-10-23T10:44:20.898Z,18.27
2022-10-23T10:49:30.542Z,18.42
2022-10-23T10:54:45.102Z,18.95
2022-10-23T10:59:57.437Z,19.30
2022-10-23T11:05:13.388Z,18.77
2022-10-23T11:10:19.189Z,18.98
2022-10-23T11:15:28.653Z,19.38
2022-10-23T11:20:46.233Z,18.20
2022-10-23T11:26:02.116Z,19.67
2022-10-23T11:31:18.508Z,18.42
2022-10-23T11:36:47.201Z,18.88
2022-10-23T11:41:54.774Z,19.23
2022-10-23T11:47:08.615Z,19.33
2022-10-23T11:52:26.450Z,18.67
2022-10-23T12:02:38.640Z,20.75
2022-10-23T12:07:43.500Z,20.55
2022-10-23T12:12:57.947Z,19.70
2022-10-23T12:18:16.082Z,18.87
2022-10-23T12:23:48.067Z,19.75
2022-10-23T12:29:00.599Z,19.02
2022-10-23T12:34:19.936Z,17.70
2022-10-23T12:39:27.382Z,18.15
2022-10-23T12:44:32.265Z,18.67
2022-10-23T12:54:41.660Z,17.67
2022-10-23T12:59:46.056Z,19.58
2022-10-23T13:04:52.230Z,18.95
2022-10-23T13:09:56.833Z,21.25
2022-10-23T13:15:03.698Z,20.42
2022-10-23T13:20:22.318Z,20.67
2022-10-23T13:25:28.163Z,23.70
2022-10-23T13:30:33.760Z,21.88
2022-10-23T13:35:40.022Z,20.10
2022-10-23T13:40:43.396Z,23.20
2022-10-23T13:45:47.151Z,21.30
2022-10-23T13:50:52.070Z,20.40
2022-10-23T13:55:58.585Z,19.73
2022-10-23T14:01:04.545Z,19.92
2022-10-23T14:06:10.228Z,18.58
2022-10-23T14:16:21.880Z,20.35
2022-10-23T14:21:27.057Z,21.20
2022-10-23T14:26:30.639Z,20.48
2022-10-23T14:31:34.040Z,22.17
2022-10-23T14:36:49.775Z,21.67
2022-10-23T14:41:53.942Z,22.58
2022-10-23T14:46:57.297Z,20.75
2022-10-23T14:52:02.274Z,20.42
2022-10-23T14:57:06.262Z,19.77
2022-10-23T15:02:11.612Z,18.93
2022-10-23T15:07:16.397Z,21.00
2022-10-23T15:12:19.873Z,18.63
2022-10-23T15:17:23.531Z,17.45
2022-10-23T15:22:28.695Z,16.67
2022-10-23T15:27:32.083Z,17.20
2022-10-23T15:32:35.813Z,15.82
2022-10-23T15:37:40.793Z,15.48
2022-10-23T15:42:44.616Z,17.13
2022-10-23T15:47:48.235Z,16.40
2022-10-23T15:52:53.553Z,16.48
2022-10-23T15:58:02.042Z,17.40
2022-10-23T16:03:05.815Z,17.67
2022-10-23T16:08:10.752Z,17.70
2022-10-23T16:13:14.167Z,17.55
2022-10-23T16:18:18.864Z,17.50
2022-10-23T16:23:24.202Z,15.57
2022-10-23T16:28:28.017Z,15.77
2022-10-23T16:33:31.431Z,17.08
2022-10-23T16:38:37.238Z,15.85
2022-10-23T16:43:40.767Z,16.13
2022-10-23T16:48:44.412Z,16.60
2022-10-23T16:53:50.324Z,15.48
2022-10-23T16:58:54.057Z,15.77
2022-10-23T17:03:58.869Z,16.02
2022-10-23T17:09:04.951Z,13.90
2022-10-23T17:14:11.335Z,14.98
2022-10-23T17:19:40.028Z,14.93
2022-10-23T17:24:47.390Z,14.25
2022-10-23T17:29:53.588Z,14.18
2022-10-23T17:34:57.116Z,14.80
2022-10-23T17:40:03.643Z,13.95
2022-10-23T17:45:08.137Z,14.27
2022-10-23T17:50:13.964Z,14.32
2022-10-23T17:55:19.332Z,12.63
2022-10-23T18:00:23.005Z,13.52
2022-10-23T18:05:26.455Z,12.90
2022-10-23T18:10:31.318Z,13.68
2022-10-23T18:20:42.733Z,13.13
2022-10-23T18:25:47.608Z,13.50
2022-10-23T18:36:00.532Z,11.98
2022-10-23T18:41:05.550Z,12.70
2022-10-23T18:46:09.446Z,11.68
2022-10-23T18:51:17.384Z,12.53
2022-10-23T18:56:26.474Z,12.30
2022-10-23T19:01:31.330Z,11.70
2022-10-23T19:06:37.585Z,11.27
2022-10-23T19:11:43.764Z,10.52
2022-10-23T19:16:57.882Z,10.05
2022-10-23T19:22:03.569Z,10.23
2022-10-23T19:27:09.166Z,10.77
2022-10-23T19:32:13.165Z,10.55
2022-10-23T19:37:16.771Z,11.53
2022-10-23T19:42:21.729Z,11.80
2022-10-23T19:47:25.078Z,11.70
2022-10-23T19:52:28.688Z,11.27
2022-10-23T19:57:35.113Z,10.90
2022-10-23T20:02:38.543Z,15.32
2022-10-23T20:07:42.775Z,10.48
2022-10-23T20:12:56.878Z,10.95
2022-10-23T20:18:07.135Z,11.20
2022-10-23T20:23:10.891Z,10.60
2022-10-23T20:28:16.053Z,11.05
2022-10-23T20:33:19.449Z,10.23
2022-10-23T20:38:23.401Z,11.02
2022-10-23T20:43:28.186Z,10.07
2022-10-23T20:48:35.297Z,10.38
2022-10-23T20:53:39.872Z,10.55
2022-10-23T20:58:45.104Z,11.25
2022-10-23T21:03:52.117Z,9.98
2022-10-23T21:08:57.483Z,11.05
2022-10-23T21:14:04.635Z,11.50
2022-10-23T21:19:14.453Z,11.32
2022-10-23T21:24:18.688Z,10.98
2022-10-23T21:29:23.449Z,12.00
2022-10-23T21:34:27.570Z,12.00
2022-10-23T21:39:31.702Z,11.00
2022-10-23T21:44:36.639Z,11.20
2022-10-23T21:49:42.435Z,10.88
2022-10-23T21:54:45.777Z,10.10
2022-10-23T21:59:50.831Z,10.00
2022-10-23T22:04:54.462Z,10.48
2022-10-23T22:09:57.835Z,9.82
2022-10-23T22:15:02.649Z,10.30
2022-10-23T22:20:07.338Z,9.68
2022-10-23T22:25:11.351Z,9.77
2022-10-23T22:30:17.707Z,9.60
2022-10-23T22:40:24.195Z,10.48
2022-10-23T22:45:29.007Z,10.85
2022-10-23T22:55:36.775Z,10.07
2022-10-23T23:00:43.646Z,10.80
2022-10-23T23:05:49.072Z,9.98
2022-10-23T23:10:56.304Z,10.50
2022-10-23T23:16:01.210Z,9.88
2022-10-23T23:21:06.327Z,9.27
2022-10-23T23:26:10.070Z,9.50
2022-10-23T23:31:19.210Z,9.63
2022-10-23T23:36:24.328Z,9.75
2022-10-23T23:41:29.765Z,9.88
2022-10-23T23:46:34.657Z,9.95
2022-10-23T23:56:41.481Z,8.93
